Time;durP1;ratioP1;P1;durP2;ratioP2;P2;SDS_P1;SDS_P2;PMS_P1;PMS_P2;Temp;Humidity;BMP_temperature;BMP_pressure;BME280_temperature;BME280_humidity;BME280_pressure;Samples;Min_cycle;Max_cycle;Signal;HPM_P1;HPM_P2
2022/08/17 00:01:06;;;;;;;1999.90;999.90;;;16.00;93.80;;;;;;4952594;28;20042;-81
2022/08/17 00:03:38;;;;;;;1999.90;999.90;;;15.80;94.10;;;;;;4966583;28;20062;-81
2022/08/17 00:06:13;;;;;;;1999.90;999.90;;;15.70;95.20;;;;;;4970408;28;20030;-81
2022/08/17 00:08:42;;;;;;;1999.90;999.90;;;15.70;95.00;;;;;;4968275;28;20738;-81
2022/08/17 00:11:12;;;;;;;1999.90;999.90;;;15.60;94.70;;;;;;4952504;28;20031;-81
2022/08/17 00:13:44;;;;;;;1999.90;999.90;;;15.60;94.50;;;;;;4968554;28;20089;-81
2022/08/17 00:16:18;;;;;;;1999.90;999.90;;;15.60;94.30;;;;;;4970135;28;20561;-81
2022/08/17 00:18:46;;;;;;;1999.90;999.90;;;15.60;94.50;;;;;;4949897;28;20560;-81
2022/08/17 00:21:12;;;;;;;1999.90;999.90;;;15.70;94.80;;;;;;4968475;28;20034;-81
2022/08/17 00:23:40;;;;;;;1999.90;999.90;;;15.70;95.00;;;;;;4971273;28;20519;-81
2022/08/17 00:26:06;;;;;;;1999.90;999.90;;;15.60;95.60;;;;;;4955702;28;20050;-81
2022/08/17 00:28:32;;;;;;;1999.90;999.90;;;15.40;95.30;;;;;;4973189;28;20031;-81
2022/08/17 00:30:58;;;;;;;1999.90;999.90;;;15.30;96.10;;;;;;4955842;28;20031;-81
2022/08/17 00:33:26;;;;;;;1999.90;999.90;;;15.10;96.90;;;;;;4973619;28;20035;-80
2022/08/17 00:35:53;;;;;;;1999.90;999.90;;;15.20;96.40;;;;;;4973647;28;20581;-80
2022/08/17 00:38:19;;;;;;;1999.90;999.90;;;15.40;96.00;;;;;;4939660;28;20514;-80
2022/08/17 00:40:48;;;;;;;1999.90;999.90;;;15.40;95.70;;;;;;4955712;28;20086;-81
2022/08/17 00:43:29;;;;;;;1999.90;999.90;;;15.40;96.50;;;;;;4954531;28;20046;-81
2022/08/17 00:45:57;;;;;;;1999.90;999.90;;;15.30;96.50;;;;;;4954094;28;20487;-81
2022/08/17 00:48:22;;;;;;;1999.90;999.90;;;15.50;96.30;;;;;;4973365;28;20031;-81
2022/08/17 00:51:11;;;;;;;1999.90;999.90;;;15.50;95.40;;;;;;4971583;28;20037;-81
2022/08/17 00:53:42;;;;;;;1999.90;999.90;;;15.60;95.90;;;;;;4962612;28;20092;-81
2022/08/17 00:56:15;;;;;;;1999.90;999.90;;;15.50;95.70;;;;;;4941374;28;20047;-81
2022/08/17 00:58:41;;;;;;;1999.90;999.90;;;15.60;95.90;;;;;;4954212;28;20031;-81
2022/08/17 01:01:09;;;;;;;1999.90;999.90;;;15.60;95.20;;;;;;4971336;28;20046;-81
2022/08/17 01:03:36;;;;;;;1999.90;999.90;;;15.70;94.70;;;;;;4961331;28;20125;-81
2022/08/17 01:06:04;;;;;;;1999.90;999.90;;;15.60;94.60;;;;;;4955360;28;20031;-82
2022/08/17 01:08:31;;;;;;;1999.90;999.90;;;15.70;95.60;;;;;;4972515;28;20588;-80
2022/08/17 01:11:01;;;;;;;1999.90;999.90;;;15.60;95.30;;;;;;4973516;28;20031;-81
2022/08/17 01:13:37;;;;;;;1999.90;999.90;;;15.60;95.50;;;;;;4970288;28;20031;-81
2022/08/17 01:16:08;;;;;;;1999.90;999.90;;;15.60;96.30;;;;;;4955271;28;20043;-81
2022/08/17 01:18:34;;;;;;;;;;;15.40;96.80;;;;;;4971775;28;20129;-81
2022/08/17 01:21:09;;;;;;;1999.90;999.90;;;15.40;97.20;;;;;;4955516;28;20000;-81
2022/08/17 01:23:35;;;;;;;1999.90;999.90;;;15.40;97.00;;;;;;4972657;28;20034;-81
2022/08/17 01:26:04;;;;;;;1999.90;999.90;;;15.50;98.00;;;;;;4971649;28;20045;-81
2022/08/17 01:28:33;;;;;;;1999.90;999.90;;;15.60;97.80;;;;;;4939080;28;20031;-81
2022/08/17 01:31:04;;;;;;;1999.90;999.90;;;15.40;98.60;;;;;;4970767;28;20387;-81
2022/08/17 01:33:30;;;;;;;1999.90;999.90;;;15.50;99.60;;;;;;4972208;28;20507;-81
2022/08/17 01:35:56;;;;;;;1999.90;999.90;;;15.40;99.90;;;;;;4970371;28;20035;-81
2022/08/17 01:38:23;;;;;;;1999.90;999.90;;;15.40;99.70;;;;;;4967781;28;20375;-81
2022/08/17 01:40:51;;;;;;;1999.90;999.90;;;15.40;99.70;;;;;;4972435;28;20038;-81
2022/08/17 01:43:23;;;;;;;1999.90;999.90;;;15.40;99.90;;;;;;4954757;28;20122;-81
2022/08/17 01:45:52;;;;;;;1999.90;999.90;;;15.30;99.90;;;;;;4955480;28;20058;-81
2022/08/17 01:48:19;;;;;;;1999.90;999.90;;;15.40;99.90;;;;;;4971395;28;20033;-81
2022/08/17 01:50:47;;;;;;;1999.90;999.90;;;15.30;99.90;;;;;;4972286;28;20194;-81
2022/08/17 01:53:20;;;;;;;1999.90;999.90;;;15.30;99.90;;;;;;4954361;28;20047;-81
2022/08/17 01:56:00;;;;;;;1999.90;999.90;;;15.30;99.90;;;;;;4966228;28;20527;-81
2022/08/17 01:58:27;;;;;;;1999.90;999.90;;;15.20;99.90;;;;;;4954257;28;20116;-81
2022/08/17 02:00:54;;;;;;;1999.90;999.90;;;15.30;99.90;;;;;;4971623;28;20286;-81
2022/08/17 02:03:23;;;;;;;1999.90;999.90;;;15.30;99.90;;;;;;4954587;28;20097;-81
2022/08/17 02:05:49;;;;;;;1999.90;999.90;;;15.30;99.90;;;;;;4972076;28;20039;-81
2022/08/17 02:08:16;;;;;;;1999.90;999.90;;;15.40;99.90;;;;;;4972247;28;20034;-81
2022/08/17 02:10:44;;;;;;;1999.90;999.90;;;15.50;99.90;;;;;;4972198;28;20034;-81
2022/08/17 02:13:09;;;;;;;1999.90;999.90;;;15.50;99.90;;;;;;4965577;28;20026;-81
2022/08/17 02:15:35;;;;;;;1999.90;999.90;;;15.50;99.90;;;;;;4928068;28;20026;-81
2022/08/17 02:18:02;;;;;;;1999.90;999.90;;;15.60;99.40;;;;;;4976037;28;20077;-80
2022/08/17 02:20:30;;;;;;;1999.90;999.90;;;15.60;99.50;;;;;;4959780;28;20089;-81
2022/08/17 02:22:58;;;;;;;1999.90;999.90;;;15.60;99.20;;;;;;4974116;28;20031;-81
2022/08/17 02:25:24;;;;;;;1999.90;999.90;;;15.60;99.00;;;;;;4973870;28;20092;-82
2022/08/17 02:27:50;;;;;;;1999.90;999.90;;;15.60;99.50;;;;;;4954016;28;20043;-81
2022/08/17 02:30:16;;;;;;;1999.90;999.90;;;15.40;99.50;;;;;;4971191;28;20402;-81
2022/08/17 02:32:43;;;;;;;1999.90;999.90;;;15.40;99.40;;;;;;4950955;28;20491;-81
2022/08/17 02:35:09;;;;;;;1999.90;999.90;;;15.40;99.70;;;;;;4960809;28;20027;-81
2022/08/17 02:37:35;;;;;;;1999.90;999.90;;;15.50;99.60;;;;;;4942169;28;20043;-81
2022/08/17 02:40:01;;;;;;;1999.90;999.90;;;15.60;99.80;;;;;;4970105;28;20382;-81
2022/08/17 02:42:35;;;;;;;1999.90;999.90;;;15.60;99.90;;;;;;4971360;28;20113;-81
2022/08/17 02:45:02;;;;;;;1999.90;999.90;;;15.60;99.70;;;;;;4971247;28;20038;-81
2022/08/17 02:47:28;;;;;;;1999.90;999.90;;;15.70;99.50;;;;;;4969812;28;20035;-81
2022/08/17 02:49:54;;;;;;;1999.90;999.90;;;15.70;98.90;;;;;;4953035;28;20034;-81
2022/08/17 02:52:20;;;;;;;1999.90;999.90;;;15.80;98.80;;;;;;4953463;28;20031;-81
2022/08/17 02:54:46;;;;;;;1999.90;999.90;;;15.90;97.80;;;;;;4969591;28;20046;-81
2022/08/17 02:57:12;;;;;;;1999.90;999.90;;;15.90;97.50;;;;;;4953539;28;20081;-81
2022/08/17 02:59:38;;;;;;;1999.90;999.90;;;15.80;97.90;;;;;;4953269;28;20042;-81
2022/08/17 03:02:06;;;;;;;1999.90;999.90;;;15.80;98.10;;;;;;4970480;28;20095;-81
2022/08/17 03:04:32;;;;;;;1999.90;999.90;;;15.80;98.40;;;;;;4969191;28;20240;-81
2022/08/17 03:06:57;;;;;;;1999.90;999.90;;;15.70;98.60;;;;;;4969404;28;20058;-81
2022/08/17 03:09:23;;;;;;;1999.90;999.90;;;15.70;98.80;;;;;;4953172;28;20498;-81
2022/08/17 03:11:50;;;;;;;1999.90;999.90;;;15.70;98.60;;;;;;4970682;28;20041;-81
2022/08/17 03:14:16;;;;;;;1999.90;999.90;;;15.70;99.10;;;;;;4970701;28;20038;-81
2022/08/17 03:16:42;;;;;;;1999.90;999.90;;;15.60;99.00;;;;;;4953217;28;20042;-81
2022/08/17 03:19:08;;;;;;;1999.90;999.90;;;15.60;98.80;;;;;;4970348;28;20030;-81
2022/08/17 03:21:33;;;;;;;1999.90;999.90;;;15.50;99.00;;;;;;4970159;28;20118;-81
2022/08/17 03:23:59;;;;;;;1999.90;999.90;;;15.50;99.00;;;;;;4970327;28;20402;-81
2022/08/17 03:26:25;;;;;;;1999.90;999.90;;;15.50;99.30;;;;;;4970998;28;20438;-81
2022/08/17 03:28:51;;;;;;;1999.90;999.90;;;15.30;99.70;;;;;;4953249;28;20401;-80
2022/08/17 03:31:17;;;;;;;1999.90;999.90;;;15.20;99.90;;;;;;4952969;28;20095;-81
2022/08/17 03:33:43;;;;;;;1999.90;999.90;;;15.10;99.90;;;;;;4953113;28;20049;-81
2022/08/17 03:36:09;;;;;;;1999.90;999.90;;;15.00;99.90;;;;;;4953536;28;20096;-81
2022/08/17 03:38:35;;;;;;;1999.90;999.90;;;15.10;99.90;;;;;;4953223;28;20043;-81
2022/08/17 03:41:00;;;;;;;1999.90;999.90;;;14.90;99.90;;;;;;4968413;28;20441;-81
2022/08/17 03:43:31;;;;;;;1999.90;999.90;;;14.90;99.90;;;;;;4949766;28;20050;-80
2022/08/17 03:57:07;;;;;;;1999.90;999.90;;;15.00;99.90;;;;;;4970385;28;20053;-81
2022/08/17 03:59:34;;;;;;;1999.90;999.90;;;15.00;99.90;;;;;;4972783;28;20031;-81
2022/08/17 04:02:08;;;;;;;1999.90;999.90;;;15.00;99.90;;;;;;4973947;28;20038;-80
2022/08/17 04:04:35;;;;;;;1999.90;999.90;;;14.90;99.90;;;;;;4972798;28;20027;-81
2022/08/17 04:07:01;;;;;;;1999.90;999.90;;;14.70;99.90;;;;;;4941020;28;20406;-81
2022/08/17 04:09:26;;;;;;;1999.90;999.90;;;14.50;99.90;;;;;;4973014;28;20074;-81
2022/08/17 04:11:53;;;;;;;1999.90;999.90;;;14.50;99.90;;;;;;4956096;28;20530;-81
2022/08/17 04:14:19;;;;;;;1999.90;999.90;;;14.60;99.90;;;;;;4974119;28;20524;-81
2022/08/17 04:16:45;;;;;;;1999.90;999.90;;;14.40;99.90;;;;;;4969368;28;20061;-81
2022/08/17 04:19:11;;;;;;;1999.90;999.90;;;14.50;99.90;;;;;;4974375;28;20074;-81
2022/08/17 04:21:36;;;;;;;1999.90;999.90;;;14.60;99.90;;;;;;4974120;28;20106;-81
2022/08/17 04:24:03;;;;;;;1999.90;999.90;;;14.60;99.90;;;;;;4973993;28;20720;-81
2022/08/17 04:26:29;;;;;;;1999.90;999.90;;;14.70;99.90;;;;;;4972423;28;20035;-81
2022/08/17 04:28:55;;;;;;;1999.90;999.90;;;14.80;99.90;;;;;;4969445;28;20402;-81
2022/08/17 04:31:21;;;;;;;1999.90;999.90;;;14.90;99.90;;;;;;4973415;28;20506;-81
2022/08/17 04:33:47;;;;;;;1999.90;999.90;;;14.80;99.90;;;;;;4956868;28;20034;-81
2022/08/17 04:36:14;;;;;;;1999.90;999.90;;;14.80;99.90;;;;;;4974246;28;20402;-81
2022/08/17 04:38:42;;;;;;;1999.90;999.90;;;14.90;99.90;;;;;;4973652;28;20038;-81
2022/08/17 04:43:56;;;;;;;1999.90;999.90;;;14.90;99.90;;;;;;4973781;28;20143;-81
2022/08/17 04:46:25;;;;;;;1999.90;999.90;;;15.00;99.90;;;;;;4957406;28;20062;-81
2022/08/17 04:48:53;;;;;;;1999.90;999.90;;;14.90;99.90;;;;;;4969738;28;20275;-81
2022/08/17 04:51:27;;;;;;;1999.90;999.90;;;14.90;99.90;;;;;;4973813;28;20058;-81
2022/08/17 04:53:56;;;;;;;1999.90;999.90;;;15.00;99.90;;;;;;4970720;28;20069;-81
2022/08/17 04:56:24;;;;;;;1999.90;999.90;;;14.90;99.90;;;;;;4971589;28;20050;-81
2022/08/17 04:58:52;;;;;;;1999.90;999.90;;;14.90;99.90;;;;;;4972738;28;20517;-81
2022/08/17 05:01:20;;;;;;;1999.90;999.90;;;14.80;99.90;;;;;;4972626;28;20183;-80
2022/08/17 05:03:46;;;;;;;1999.90;999.90;;;14.90;99.90;;;;;;4953320;28;20101;-80
2022/08/17 05:06:12;;;;;;;1999.90;999.90;;;15.00;99.90;;;;;;4973093;28;20118;-81
2022/08/17 05:08:38;;;;;;;1999.90;999.90;;;15.10;99.90;;;;;;4967756;28;20118;-80
2022/08/17 05:11:06;;;;;;;1999.90;999.90;;;15.10;99.90;;;;;;4967347;28;20643;-81
2022/08/17 05:13:32;;;;;;;1999.90;999.90;;;15.20;99.90;;;;;;4939128;28;20684;-80
2022/08/17 05:15:59;;;;;;;1999.90;999.90;;;15.20;99.90;;;;;;4955685;28;20046;-80
2022/08/17 05:18:26;;;;;;;1999.90;999.90;;;15.40;99.90;;;;;;4972961;28;20057;-80
2022/08/17 05:20:52;;;;;;;1999.90;999.90;;;15.50;99.90;;;;;;4973241;28;20027;-80
2022/08/17 05:23:19;;;;;;;1999.90;999.90;;;15.70;99.90;;;;;;4955472;28;20037;-80
2022/08/17 05:25:48;;;;;;;1999.90;999.90;;;15.90;99.90;;;;;;4972498;28;20026;-80
2022/08/17 05:28:15;;;;;;;1999.90;999.90;;;15.90;99.90;;;;;;4954990;28;20503;-80
2022/08/17 05:30:42;;;;;;;1999.90;999.90;;;15.90;99.90;;;;;;4954397;28;20046;-80
2022/08/17 05:33:15;;;;;;;1999.90;999.90;;;16.00;99.90;;;;;;4954259;28;20109;-80
2022/08/17 05:35:45;;;;;;;1999.90;999.90;;;16.10;99.90;;;;;;4955435;28;20035;-80
2022/08/17 05:38:12;;;;;;;1999.90;999.90;;;16.20;99.90;;;;;;4971555;28;20069;-81
2022/08/17 05:40:38;;;;;;;1999.90;999.90;;;16.30;99.40;;;;;;4969870;28;20046;-80
2022/08/17 05:43:19;;;;;;;1999.90;999.90;;;16.40;99.10;;;;;;4955100;28;20062;-81
2022/08/17 05:45:51;;;;;;;1999.90;999.90;;;16.60;98.60;;;;;;4972234;28;20061;-81
2022/08/17 05:48:17;;;;;;;1999.90;999.90;;;16.80;98.40;;;;;;4971000;28;20038;-81
2022/08/17 05:50:48;;;;;;;1999.90;999.90;;;16.90;97.50;;;;;;4969634;28;20035;-81
2022/08/17 05:53:48;;;;;;;1999.90;999.90;;;16.90;97.80;;;;;;4955106;28;20022;-81
2022/08/17 05:56:20;;;;;;;1999.90;999.90;;;17.10;97.60;;;;;;4971874;28;20042;-81
2022/08/17 05:58:51;;;;;;;1999.90;999.90;;;17.20;95.80;;;;;;4954692;28;20042;-81
2022/08/17 06:01:19;;;;;;;1999.90;999.90;;;17.30;95.30;;;;;;4966422;28;20046;-81
2022/08/17 06:04:15;;;;;;;1999.90;999.90;;;17.50;93.60;;;;;;4971712;28;20033;-82
2022/08/17 06:06:55;;;;;;;1999.90;999.90;;;17.50;93.00;;;;;;4955655;28;20038;-81
2022/08/17 06:09:44;;;;;;;1999.90;999.90;;;17.70;92.70;;;;;;4951558;28;20035;-81
2022/08/17 06:12:52;;;;;;;1999.90;999.90;;;17.80;93.60;;;;;;4967452;28;20471;-81
2022/08/17 06:15:48;;;;;;;1999.90;999.90;;;17.90;93.90;;;;;;4962413;28;20499;-81
2022/08/17 06:18:17;;;;;;;1999.90;999.90;;;18.00;93.30;;;;;;4971679;28;20034;-81
2022/08/17 06:21:00;;;;;;;1999.90;999.90;;;18.00;93.50;;;;;;4971184;28;20521;-81
2022/08/17 06:23:42;;;;;;;1999.90;999.90;;;18.10;94.20;;;;;;4969120;28;20046;-81
2022/08/17 06:26:21;;;;;;;1999.90;999.90;;;18.20;92.90;;;;;;4970624;28;20038;-81
2022/08/17 06:28:53;;;;;;;1999.90;999.90;;;18.40;92.90;;;;;;4970163;28;20039;-81
2022/08/17 06:31:31;;;;;;;1999.90;999.90;;;18.60;93.20;;;;;;4950495;28;20117;-81
2022/08/17 06:33:59;;;;;;;1999.90;999.90;;;18.90;92.60;;;;;;4935353;28;20023;-81
2022/08/17 06:36:38;;;;;;;1999.90;999.90;;;19.20;91.90;;;;;;4936180;28;20027;-81
2022/08/17 06:39:33;;;;;;;1999.90;999.90;;;19.00;90.60;;;;;;4971025;28;20026;-81
2022/08/17 06:42:11;;;;;;;1999.90;999.90;;;19.30;91.70;;;;;;4969999;28;20035;-81
2022/08/17 06:45:02;;;;;;;1999.90;999.90;;;19.30;90.40;;;;;;4953824;28;20570;-81
2022/08/17 06:47:35;;;;;;;1999.90;999.90;;;19.30;89.20;;;;;;4968416;28;20042;-81
2022/08/17 06:50:21;;;;;;;1999.90;999.90;;;19.40;88.50;;;;;;4969633;28;20050;-80
2022/08/17 06:52:56;;;;;;;1999.90;999.90;;;19.60;85.80;;;;;;4965160;28;20059;-81
2022/08/17 06:55:32;;;;;;;1999.90;999.90;;;19.70;86.20;;;;;;4967799;28;20023;-81
2022/08/17 06:58:05;;;;;;;1999.90;999.90;;;20.00;84.30;;;;;;4971155;28;20506;-81
2022/08/17 07:00:37;;;;;;;1999.90;999.90;;;20.10;85.50;;;;;;4952957;28;20077;-81
2022/08/17 07:03:11;;;;;;;1999.90;999.90;;;20.40;81.30;;;;;;4953415;28;20043;-81
2022/08/17 07:05:49;;;;;;;1999.90;999.90;;;20.60;78.20;;;;;;4968459;28;20033;-80
2022/08/17 07:08:33;;;;;;;1999.90;999.90;;;20.80;77.90;;;;;;4970938;28;20038;-81
2022/08/17 07:11:06;;;;;;;1999.90;999.90;;;20.90;75.00;;;;;;4968247;28;20054;-82
2022/08/17 07:14:02;;;;;;;1999.90;999.90;;;21.10;75.00;;;;;;4968856;28;20557;-81
2022/08/17 07:16:35;;;;;;;1999.90;999.90;;;21.20;73.50;;;;;;4968789;28;20031;-81
2022/08/17 07:19:01;;;;;;;1999.90;999.90;;;21.40;76.20;;;;;;4968967;28;20033;-81
2022/08/17 07:22:04;;;;;;;1999.90;999.90;;;21.20;76.90;;;;;;4969189;28;20101;-82
2022/08/17 07:24:56;;;;;;;1999.90;999.90;;;21.00;78.10;;;;;;4968481;28;20031;-81
2022/08/17 07:27:30;;;;;;;1999.90;999.90;;;20.70;75.50;;;;;;4953057;28;20117;-81
2022/08/17 07:30:02;;;;;;;1999.90;999.90;;;20.60;72.70;;;;;;4966414;28;20026;-81
2022/08/17 07:32:39;;;;;;;1999.90;999.90;;;20.50;78.70;;;;;;4969242;28;20564;-81
2022/08/17 07:35:09;;;;;;;1999.90;999.90;;;20.50;73.40;;;;;;4967342;28;20027;-81
2022/08/17 07:37:37;;;;;;;1999.90;999.90;;;20.60;74.00;;;;;;4953264;28;20771;-81
2022/08/17 07:40:32;;;;;;;1999.90;999.90;;;20.70;74.00;;;;;;4951247;28;20039;-81
2022/08/17 07:43:03;;;;;;;1999.90;999.90;;;21.10;71.60;;;;;;4962392;28;20042;-81
2022/08/17 07:48:23;;;;;;;1999.90;999.90;;;21.50;73.80;;;;;;4940139;28;20041;-81
2022/08/17 07:50:51;;;;;;;1999.90;999.90;;;21.70;74.70;;;;;;4955535;28;20479;-81
2022/08/17 07:53:22;;;;;;;1999.90;999.90;;;21.80;73.70;;;;;;4949690;28;20027;-81
2022/08/17 07:55:49;;;;;;;1999.90;999.90;;;21.70;71.70;;;;;;4967746;28;20027;-81
2022/08/17 07:58:19;;;;;;;1999.90;999.90;;;21.50;70.70;;;;;;4971640;28;20034;-81
2022/08/17 08:00:45;;;;;;;;;;;21.50;71.90;;;;;;4961430;28;20031;-81
2022/08/17 08:03:30;;;;;;;1988.15;999.90;;;21.60;71.60;;;;;;4949664;29;19922;-81
2022/08/17 08:06:01;;;;;;;1999.90;999.90;;;22.10;68.80;;;;;;4949535;29;20031;-80
2022/08/17 08:08:42;;;;;;;1999.90;999.90;;;22.40;70.70;;;;;;4950547;29;20118;-81
2022/08/17 08:11:11;;;;;;;1999.90;999.90;;;22.40;67.20;;;;;;4949478;29;20058;-81
2022/08/17 08:13:41;;;;;;;1999.90;956.20;;;22.30;66.90;;;;;;4950878;29;20031;-82
2022/08/17 08:16:16;;;;;;;1999.90;960.38;;;22.70;64.20;;;;;;4950949;29;20102;-82
2022/08/17 08:18:45;;;;;;;1999.90;983.17;;;22.90;64.40;;;;;;4949376;29;20031;-80
2022/08/17 08:21:20;;;;;;;1999.90;991.50;;;23.10;64.10;;;;;;4954411;29;20031;-82
2022/08/17 08:24:19;;;;;;;1999.90;999.90;;;23.20;61.00;;;;;;4953407;29;20027;-82
2022/08/17 08:26:57;;;;;;;1999.90;999.90;;;23.10;63.50;;;;;;4950691;29;20027;-82
2022/08/17 08:29:38;;;;;;;1999.90;999.90;;;23.20;62.30;;;;;;4951067;29;20031;-82
2022/08/17 08:32:35;;;;;;;1999.90;999.90;;;23.30;67.00;;;;;;4961409;28;20553;-82
2022/08/17 08:35:05;;;;;;;1999.90;999.90;;;23.10;67.60;;;;;;4975493;28;20027;-82
2022/08/17 08:37:54;;;;;;;1999.90;999.90;;;23.50;64.60;;;;;;4966382;28;20026;-81
2022/08/17 08:40:23;;;;;;;1999.90;999.90;;;23.60;60.50;;;;;;4975501;28;20030;-82
2022/08/17 08:43:02;;;;;;;1999.90;999.90;;;23.70;62.40;;;;;;4957465;28;20031;-81
2022/08/17 08:45:55;;;;;;;1999.90;999.90;;;23.10;65.90;;;;;;4984330;28;20018;-82
2022/08/17 08:48:34;;;;;;;1999.90;954.47;;;23.30;67.50;;;;;;4981493;28;20093;-82
2022/08/17 08:51:26;;;;;;;1999.90;980.25;;;24.30;61.20;;;;;;4976305;28;20023;-82
2022/08/17 08:54:16;;;;;;;1999.90;999.90;;;24.80;63.00;;;;;;4968845;28;20528;-82
2022/08/17 08:56:47;;;;;;;;;;;25.00;62.60;;;;;;4962239;28;20093;-82
2022/08/17 08:59:32;;;;;;;1799.57;999.90;;;25.30;54.90;;;;;;4982394;28;19993;-81
2022/08/17 09:02:16;;;;;;;1999.90;999.90;;;25.00;54.60;;;;;;5000886;28;20042;-84
2022/08/17 09:04:53;;;;;;;1999.90;999.90;;;25.20;60.70;;;;;;4966708;28;20023;-81
2022/08/17 09:07:57;;;;;;;1999.90;999.90;;;25.50;56.50;;;;;;4968382;28;20038;-82
2022/08/17 09:11:01;;;;;;;1999.90;999.90;;;25.20;53.00;;;;;;4961323;28;20030;-82
2022/08/17 09:13:32;;;;;;;1999.90;999.90;;;25.50;57.20;;;;;;4912300;29;20118;-82
2022/08/17 09:16:05;;;;;;;1999.90;999.90;;;25.70;55.10;;;;;;4922859;29;20028;-82
2022/08/17 09:18:42;;;;;;;1999.90;999.90;;;25.60;58.00;;;;;;4927567;28;20027;-81
2022/08/17 09:21:37;;;;;;;1999.90;999.90;;;25.70;55.50;;;;;;4957423;28;20449;-82
2022/08/17 09:24:38;;;;;;;1999.90;992.08;;;25.90;53.50;;;;;;4986289;28;20026;-82
2022/08/17 09:27:14;;;;;;;1999.90;999.90;;;26.30;54.60;;;;;;4965941;28;20038;-79
2022/08/17 09:29:56;;;;;;;1844.72;999.90;;;26.60;49.30;;;;;;4965443;28;20051;-81
2022/08/17 09:32:31;;;;;;;1999.90;999.90;;;27.00;47.80;;;;;;4969752;28;20027;-80
2022/08/17 09:35:03;;;;;;;1999.90;999.90;;;27.20;51.50;;;;;;4972037;28;20041;-80
2022/08/17 09:37:38;;;;;;;1999.90;999.90;;;27.30;54.10;;;;;;4969871;28;20778;-81
2022/08/17 09:40:23;;;;;;;1999.90;999.90;;;27.90;52.20;;;;;;4972350;28;20483;-80
2022/08/17 09:43:18;;;;;;;1600.13;999.90;;;28.30;47.70;;;;;;4972504;28;20525;-80
2022/08/17 09:45:50;;;;;;;1332.45;999.85;;;28.80;41.30;;;;;;4972204;28;20062;-80
2022/08/17 09:48:19;;;;;;;1513.85;999.90;;;28.40;39.80;;;;;;4972363;28;20023;-80
2022/08/17 09:51:02;;;;;;;1848.68;999.90;;;27.90;42.20;;;;;;4971887;28;20042;-80
2022/08/17 09:53:29;;;;;;;898.72;817.20;;;27.60;41.40;;;;;;4967896;28;20101;-80
2022/08/17 09:56:20;;;;;;;1191.70;979.42;;;27.60;41.30;;;;;;4952749;28;20067;-80
2022/08/17 09:58:52;;;;;;;919.60;840.20;;;27.50;41.30;;;;;;4970470;28;20066;-81
2022/08/17 10:01:37;;;;;;;1616.63;999.90;;;27.40;41.60;;;;;;4968211;28;20058;-80
2022/08/17 10:04:29;;;;;;;1101.28;968.60;;;27.70;41.60;;;;;;4971527;28;20458;-81
2022/08/17 10:07:05;;;;;;;1405.95;991.10;;;28.00;39.40;;;;;;4951203;28;20034;-80
2022/08/17 10:09:47;;;;;;;1595.72;999.90;;;27.60;40.10;;;;;;4969218;28;20027;-81
2022/08/17 10:12:19;;;;;;;1983.47;999.90;;;27.80;40.80;;;;;;4969132;28;20849;-80
2022/08/17 10:14:50;;;;;;;1235.47;965.33;;;27.40;42.60;;;;;;4954247;28;20026;-80
2022/08/17 10:17:31;;;;;;;1492.68;999.90;;;27.60;40.30;;;;;;4971767;28;20042;-81
2022/08/17 10:20:12;;;;;;;1344.90;969.95;;;28.70;40.00;;;;;;4953337;28;20038;-81
2022/08/17 10:28:25;;;;;;;1220.03;993.45;;;28.90;44.20;;;;;;4971930;28;20587;-81
2022/08/17 10:30:57;;;;;;;1871.28;999.90;;;29.20;37.90;;;;;;4969486;28;20034;-81
2022/08/17 10:33:29;;;;;;;1672.10;999.90;;;28.90;40.30;;;;;;4969546;28;20106;-81
2022/08/17 10:36:16;;;;;;;1775.32;999.90;;;28.60;38.60;;;;;;4970947;28;20033;-81
2022/08/17 10:38:46;;;;;;;1745.97;999.90;;;29.00;39.20;;;;;;4969979;28;20030;-80
2022/08/17 10:41:41;;;;;;;1742.43;999.90;;;29.90;37.50;;;;;;4953805;28;20442;-81
2022/08/17 10:44:22;;;;;;;1264.43;999.33;;;30.10;36.20;;;;;;4937555;28;20502;-81
2022/08/17 10:46:54;;;;;;;1280.05;999.90;;;30.40;34.80;;;;;;4952995;28;20406;-81
2022/08/17 10:49:20;;;;;;;1017.22;918.38;;;29.90;36.10;;;;;;4971285;28;20015;-80
2022/08/17 10:51:47;;;;;;;1211.45;999.90;;;29.70;34.60;;;;;;4970987;28;20025;-80
2022/08/17 10:54:31;;;;;;;937.10;860.33;;;29.20;35.80;;;;;;4967455;28;20046;-80
2022/08/17 10:56:57;;;;;;;1027.93;918.33;;;29.50;34.40;;;;;;4968781;28;20058;-81
2022/08/17 10:59:35;;;;;;;972.90;884.40;;;30.00;35.30;;;;;;4969928;28;20870;-81
2022/08/17 11:02:16;;;;;;;1061.80;954.55;;;29.90;33.60;;;;;;4968157;28;20041;-80
2022/08/17 11:04:56;;;;;;;1036.22;940.47;;;30.40;34.00;;;;;;4969933;28;20101;-81
2022/08/17 11:07:33;;;;;;;1077.00;951.88;;;30.70;32.20;;;;;;4970851;28;20491;-81
2022/08/17 11:10:47;;;;;;;997.42;906.20;;;30.40;30.80;;;;;;4974314;28;20046;-80
2022/08/17 11:13:52;;;;;;;610.58;573.95;;;30.40;32.90;;;;;;4927747;28;20053;-80
2022/08/17 11:16:46;;;;;;;773.63;720.40;;;31.20;30.40;;;;;;4964447;28;20034;-80
2022/08/17 11:19:18;;;;;;;980.10;886.28;;;32.00;29.40;;;;;;4955435;28;20035;-81
2022/08/17 11:22:11;;;;;;;882.50;818.70;;;31.10;29.90;;;;;;4970683;28;20437;-80
2022/08/17 11:24:46;;;;;;;830.53;773.83;;;30.90;30.70;;;;;;4968900;28;20034;-81
2022/08/17 11:27:29;;;;;;;921.72;854.25;;;29.90;31.60;;;;;;4967972;28;20031;-80
2022/08/17 11:29:59;;;;;;;975.97;891.65;;;29.90;32.20;;;;;;4966637;28;20066;-80
2022/08/17 11:32:42;;;;;;;923.08;842.45;;;30.00;32.50;;;;;;4967711;28;20062;-80
2022/08/17 11:35:20;;;;;;;773.28;721.58;;;30.60;31.90;;;;;;4969040;28;20566;-80
2022/08/17 11:37:58;;;;;;;876.63;802.58;;;31.50;29.40;;;;;;4985075;28;20486;-81
2022/08/17 11:41:01;;;;;;;882.83;817.22;;;31.60;29.60;;;;;;4970171;28;20031;-81
2022/08/17 11:43:56;;;;;;;850.28;791.70;;;31.60;28.90;;;;;;4970174;28;20026;-81
2022/08/17 11:51:32;;;;;;;781.90;731.28;;;32.00;28.30;;;;;;4959233;28;20045;-80
2022/08/17 11:52:45;;;;;;;772.40;722.05;;;31.80;28.20;;;;;;4970351;28;20033;-80
2022/08/17 11:55:33;;;;;;;864.15;803.10;;;31.60;28.70;;;;;;4969824;28;20042;-80
2022/08/17 11:58:29;;;;;;;764.78;714.50;;;31.80;28.30;;;;;;4966823;28;20173;-80
2022/08/17 12:01:03;;;;;;;431.40;410.77;;;31.80;28.00;;;;;;4970139;28;20031;-80
2022/08/17 12:03:32;;;;;;;552.72;521.35;;;32.20;27.50;;;;;;4967811;28;20122;-80
2022/08/17 12:06:10;;;;;;;815.63;761.95;;;32.10;27.10;;;;;;4952062;28;20038;-81
2022/08/17 12:08:42;;;;;;;425.50;402.27;;;32.40;27.90;;;;;;4970712;28;20110;-80
2022/08/17 12:11:17;;;;;;;567.85;534.58;;;32.80;25.80;;;;;;4969443;28;20126;-80
2022/08/17 12:13:50;;;;;;;1060.07;966.40;;;32.50;26.60;;;;;;4952441;28;20042;-81
2022/08/17 12:16:19;;;;;;;872.88;808.60;;;32.30;27.60;;;;;;4969386;28;20059;-81
2022/08/17 12:18:52;;;;;;;697.65;655.72;;;31.60;27.80;;;;;;4969727;28;20034;-81
2022/08/17 12:21:43;;;;;;;895.33;828.38;;;33.20;25.90;;;;;;4973537;28;20130;-81
2022/08/17 12:24:15;;;;;;;595.45;563.78;;;32.90;26.10;;;;;;4973062;28;20026;-80
2022/08/17 12:26:42;;;;;;;760.60;711.65;;;32.90;24.60;;;;;;4972515;28;20394;-80
2022/08/17 12:29:15;;;;;;;901.58;831.67;;;33.10;25.40;;;;;;4956153;28;20044;-81
2022/08/17 12:31:43;;;;;;;798.75;720.85;;;32.10;26.10;;;;;;4972106;28;20035;-81
2022/08/17 12:34:15;;;;;;;652.78;612.28;;;31.80;26.10;;;;;;4971653;28;20086;-80
2022/08/17 12:36:42;;;;;;;454.27;424.65;;;31.50;26.70;;;;;;4956070;28;20035;-81
2022/08/17 12:39:08;;;;;;;365.52;345.95;;;31.10;26.10;;;;;;4973334;28;20031;-79
2022/08/17 12:41:42;;;;;;;923.65;852.97;;;30.90;27.00;;;;;;4973499;28;20085;-80
2022/08/17 12:44:26;;;;;;;665.10;616.42;;;32.00;27.50;;;;;;4974023;28;20035;-81
2022/08/17 12:46:54;;;;;;;551.35;520.67;;;32.50;24.90;;;;;;4972915;28;20031;-80
2022/08/17 12:49:34;;;;;;;840.58;781.15;;;32.40;25.00;;;;;;4971947;28;20050;-80
2022/08/17 12:52:03;;;;;;;574.90;541.47;;;32.70;25.80;;;;;;4956049;28;20530;-80
2022/08/17 12:54:38;;;;;;;554.75;520.45;;;32.10;25.30;;;;;;4971559;28;20031;-80
2022/08/17 12:57:09;;;;;;;1066.07;969.10;;;30.90;26.50;;;;;;4971510;28;20054;-80
2022/08/17 12:59:40;;;;;;;397.90;376.33;;;30.20;30.50;;;;;;4970527;28;20065;-80